Time;durP1;ratioP1;P1;durP2;ratioP2;P2;SDS_P1;SDS_P2;PMS_P1;PMS_P2;Temp;Humidity;BMP_temperature;BMP_pressure;BME280_temperature;BME280_humidity;BME280_pressure;Samples;Min_cycle;Max_cycle;Signal;HPM_P1;HPM_P2
2023/12/06 00:00:46;;;;;;;2.60;1.75;;;;;;;;;;5050565;28;20091;-75
2023/12/06 00:03:14;;;;;;;0.20;0.20;;;;;;;;;;5050191;28;20071;-76
2023/12/06 00:05:42;;;;;;;2.10;1.17;;;;;;;;;;5050911;28;20053;-75
2023/12/06 00:08:10;;;;;;;0.30;0.30;;;;;;;;;;5033956;28;20366;-77
2023/12/06 00:10:37;;;;;;;0.45;0.45;;;;;;;;;;5050575;28;20037;-76
2023/12/06 00:13:05;;;;;;;0.95;0.95;;;;;;;;;;5050241;28;20105;-76
2023/12/06 00:15:33;;;;;;;0.70;0.70;;;;;;;;;;5051132;28;20072;-75
2023/12/06 00:18:00;;;;;;;1.40;1.30;;;;;;;;;;5051212;28;20706;-75
2023/12/06 00:20:28;;;;;;;1.20;1.17;;;;;;;;;;5051354;28;20529;-75
2023/12/06 00:22:55;;;;;;;0.55;0.55;;;;;;;;;;5051464;28;20037;-74
2023/12/06 00:25:23;;;;;;;2.50;2.35;;;;;;;;;;5051693;28;20159;-73
2023/12/06 00:27:52;;;;;;;0.10;0.10;;;;;;;;;;5049861;28;20049;-74
2023/12/06 00:30:20;;;;;;;0.10;0.10;;;;;;;;;;5049759;28;20526;-74
2023/12/06 00:32:47;;;;;;;2.33;1.60;;;;;;;;;;5051120;28;20471;-75
2023/12/06 00:35:21;;;;;;;0.65;0.65;;;;;;;;;;5050488;28;20490;-76
2023/12/06 00:37:48;;;;;;;0.17;0.17;;;;;;;;;;5048177;28;20511;-75
2023/12/06 00:40:16;;;;;;;0.93;0.93;;;;;;;;;;5049257;28;20052;-75
2023/12/06 00:42:44;;;;;;;1.42;1.38;;;;;;;;;;5050667;28;20052;-75
2023/12/06 00:45:11;;;;;;;2.30;2.05;;;;;;;;;;5049943;28;20061;-76
2023/12/06 00:47:39;;;;;;;2.72;2.53;;;;;;;;;;5050697;28;20057;-75
2023/12/06 00:50:07;;;;;;;2.95;2.17;;;;;;;;;;5050053;28;20073;-75
2023/12/06 00:52:35;;;;;;;0.25;0.25;;;;;;;;;;5051492;28;20479;-75
2023/12/06 00:55:03;;;;;;;16.55;9.63;;;;;;;;;;5050879;28;20442;-76
2023/12/06 00:57:31;;;;;;;3.83;0.40;;;;;;;;;;5050190;28;20106;-76
2023/12/06 00:59:58;;;;;;;0.88;0.88;;;;;;;;;;5050456;28;20126;-76
2023/12/06 01:02:26;;;;;;;1.98;1.88;;;;;;;;;;5049626;28;20075;-76
2023/12/06 01:04:53;;;;;;;1.42;1.33;;;;;;;;;;5029877;28;20052;-75
2023/12/06 01:07:21;;;;;;;0.43;0.43;;;;;;;;;;5010518;28;20069;-75
2023/12/06 01:09:49;;;;;;;0.35;0.35;;;;;;;;;;5027087;28;20049;-76
2023/12/06 01:12:16;;;;;;;0.20;0.20;;;;;;;;;;5047842;28;20583;-75
2023/12/06 01:14:44;;;;;;;0.10;0.10;;;;;;;;;;5047177;28;20049;-75
2023/12/06 01:17:11;;;;;;;0.10;0.10;;;;;;;;;;5047862;28;20140;-76
2023/12/06 01:19:39;;;;;;;2.60;2.50;;;;;;;;;;5043107;28;20506;-75
2023/12/06 01:22:07;;;;;;;0.63;0.63;;;;;;;;;;5050242;28;20056;-75
2023/12/06 01:24:34;;;;;;;8.27;3.35;;;;;;;;;;5049744;28;20128;-76
2023/12/06 01:27:02;;;;;;;1.42;1.35;;;;;;;;;;5049772;28;20828;-76
2023/12/06 01:29:30;;;;;;;0.00;0.00;;;;;;;;;;5049538;28;20049;-75
2023/12/06 01:31:58;;;;;;;1.27;1.15;;;;;;;;;;5049341;28;20120;-76
2023/12/06 01:34:26;;;;;;;0.60;0.45;;;;;;;;;;5035938;28;20048;-75
2023/12/06 01:36:53;;;;;;;3.60;2.05;;;;;;;;;;5031710;28;20049;-75
2023/12/06 01:39:21;;;;;;;0.70;0.70;;;;;;;;;;5049311;28;20144;-76
2023/12/06 01:41:48;;;;;;;0.32;0.32;;;;;;;;;;5031672;28;20044;-76
2023/12/06 01:44:16;;;;;;;1.35;1.35;;;;;;;;;;5031460;28;20684;-76
2023/12/06 01:46:43;;;;;;;2.85;2.70;;;;;;;;;;5048873;28;20124;-76
2023/12/06 01:49:12;;;;;;;2.03;1.88;;;;;;;;;;5050381;28;20582;-76
2023/12/06 01:51:41;;;;;;;3.95;3.10;;;;;;;;;;5049199;28;20136;-76
2023/12/06 01:54:09;;;;;;;3.33;3.10;;;;;;;;;;5046715;28;20267;-75
2023/12/06 01:56:38;;;;;;;0.65;0.50;;;;;;;;;;5046345;28;20065;-75
2023/12/06 01:59:07;;;;;;;1.65;1.55;;;;;;;;;;5046465;28;20386;-76
2023/12/06 02:01:35;;;;;;;1.40;1.40;;;;;;;;;;5046862;28;20053;-76
2023/12/06 02:04:03;;;;;;;3.10;2.83;;;;;;;;;;5047214;28;20053;-76
2023/12/06 02:06:30;;;;;;;0.10;0.10;;;;;;;;;;5046900;28;20561;-75
2023/12/06 02:09:01;;;;;;;0.10;0.10;;;;;;;;;;5047183;28;20040;-75
2023/12/06 02:11:29;;;;;;;0.87;0.83;;;;;;;;;;5031854;28;20045;-75
2023/12/06 02:13:57;;;;;;;0.55;0.55;;;;;;;;;;5049479;28;20299;-75
2023/12/06 02:16:25;;;;;;;1.98;1.77;;;;;;;;;;5030747;28;20052;-76
2023/12/06 02:18:53;;;;;;;0.93;0.93;;;;;;;;;;5048113;28;20083;-76
2023/12/06 02:21:21;;;;;;;0.10;0.10;;;;;;;;;;5048313;28;20056;-76
2023/12/06 02:23:49;;;;;;;0.10;0.10;;;;;;;;;;5047981;28;20461;-76
2023/12/06 02:26:16;;;;;;;0.10;0.10;;;;;;;;;;5028553;28;20049;-76
2023/12/06 02:28:44;;;;;;;1.02;1.02;;;;;;;;;;5028369;28;20054;-76
2023/12/06 02:31:11;;;;;;;0.70;0.70;;;;;;;;;;5028757;28;20679;-76
2023/12/06 02:33:39;;;;;;;4.70;4.13;;;;;;;;;;5029110;28;20049;-76
2023/12/06 02:36:09;;;;;;;1.17;1.17;;;;;;;;;;5029682;28;20456;-76
2023/12/06 02:38:37;;;;;;;0.10;0.10;;;;;;;;;;5047547;28;20036;-76
2023/12/06 02:41:06;;;;;;;0.75;0.75;;;;;;;;;;5068531;28;20387;-76
2023/12/06 02:43:34;;;;;;;0.00;0.00;;;;;;;;;;5068782;28;20490;-76
2023/12/06 02:46:04;;;;;;;0.10;0.10;;;;;;;;;;5068540;28;20080;-76
2023/12/06 02:48:33;;;;;;;0.10;0.10;;;;;;;;;;5068447;28;20297;-75
2023/12/06 02:51:00;;;;;;;0.73;0.73;;;;;;;;;;5063668;28;20052;-76
2023/12/06 02:53:28;;;;;;;1.10;1.00;;;;;;;;;;5067903;28;20391;-76
2023/12/06 02:55:56;;;;;;;0.63;0.63;;;;;;;;;;5048350;28;20036;-76
2023/12/06 02:58:23;;;;;;;6.32;2.17;;;;;;;;;;5030042;28;20071;-76
2023/12/06 03:00:51;;;;;;;6.68;6.13;;;;;;;;;;5047800;28;20057;-76
2023/12/06 03:03:18;;;;;;;2.47;2.05;;;;;;;;;;5047302;28;20400;-75
2023/12/06 03:05:46;;;;;;;2.47;1.50;;;;;;;;;;5047789;28;20048;-76
2023/12/06 03:08:14;;;;;;;0.20;0.20;;;;;;;;;;5030168;28;20552;-76
2023/12/06 03:10:42;;;;;;;0.22;0.22;;;;;;;;;;5047386;28;20091;-76
2023/12/06 03:13:09;;;;;;;0.55;0.47;;;;;;;;;;5047578;28;20051;-76
2023/12/06 03:15:37;;;;;;;0.47;0.40;;;;;;;;;;5030291;28;20057;-76
2023/12/06 03:18:05;;;;;;;1.33;1.30;;;;;;;;;;5048017;28;20059;-76
2023/12/06 03:20:33;;;;;;;0.45;0.45;;;;;;;;;;5039929;28;20449;-76
2023/12/06 03:23:00;;;;;;;16.67;6.75;;;;;;;;;;5046141;28;20049;-76
2023/12/06 03:25:28;;;;;;;2.38;2.03;;;;;;;;;;5045645;28;20044;-76
2023/12/06 03:27:57;;;;;;;0.15;0.15;;;;;;;;;;5047600;28;20064;-76
2023/12/06 03:30:24;;;;;;;1.05;1.05;;;;;;;;;;5047249;28;20049;-76
2023/12/06 03:33:02;;;;;;;0.80;0.57;;;;;;;;;;5048001;28;20534;-75
2023/12/06 03:35:30;;;;;;;6.82;4.57;;;;;;;;;;5067618;28;20051;-76
2023/12/06 03:37:58;;;;;;;1.00;1.00;;;;;;;;;;5068394;28;20104;-77
2023/12/06 03:40:25;;;;;;;0.10;0.10;;;;;;;;;;5055255;28;20053;-77
2023/12/06 03:42:53;;;;;;;0.35;0.35;;;;;;;;;;5051452;28;20048;-76
2023/12/06 03:45:21;;;;;;;0.75;0.75;;;;;;;;;;5051352;28;20056;-77
2023/12/06 03:47:49;;;;;;;0.43;0.43;;;;;;;;;;5051033;28;20419;-77
2023/12/06 03:50:17;;;;;;;2.65;2.33;;;;;;;;;;5050583;28;20053;-76
2023/12/06 03:52:45;;;;;;;0.55;0.55;;;;;;;;;;5049925;28;20398;-77
2023/12/06 03:55:12;;;;;;;0.10;0.10;;;;;;;;;;5049182;28;20048;-77
2023/12/06 03:57:39;;;;;;;0.10;0.10;;;;;;;;;;5031673;28;20048;-77
2023/12/06 04:00:07;;;;;;;0.20;0.20;;;;;;;;;;5049207;28;20052;-77
2023/12/06 04:02:38;;;;;;;0.17;0.17;;;;;;;;;;5048832;28;20056;-77
2023/12/06 04:05:07;;;;;;;0.00;0.00;;;;;;;;;;5049405;28;20057;-77
2023/12/06 04:07:34;;;;;;;0.30;0.30;;;;;;;;;;5051028;28;20049;-77
2023/12/06 04:10:02;;;;;;;0.10;0.10;;;;;;;;;;5050910;28;20044;-77
2023/12/06 04:12:30;;;;;;;0.40;0.40;;;;;;;;;;5032776;28;20045;-77
2023/12/06 04:14:58;;;;;;;0.20;0.20;;;;;;;;;;5050715;28;20095;-77
2023/12/06 04:17:25;;;;;;;0.63;0.63;;;;;;;;;;5051055;28;20049;-77
2023/12/06 04:19:53;;;;;;;0.88;0.88;;;;;;;;;;5051040;28;20053;-77
2023/12/06 04:22:21;;;;;;;1.23;1.17;;;;;;;;;;5033432;28;20053;-77
2023/12/06 04:24:48;;;;;;;1.02;1.02;;;;;;;;;;5051850;28;20127;-76
2023/12/06 04:27:16;;;;;;;1.35;1.25;;;;;;;;;;5049714;28;20785;-77
2023/12/06 04:29:43;;;;;;;0.43;0.43;;;;;;;;;;5048754;28;20037;-77
2023/12/06 04:32:11;;;;;;;0.10;0.10;;;;;;;;;;5049062;28;20052;-76
2023/12/06 04:34:47;;;;;;;0.45;0.30;;;;;;;;;;5031170;28;20332;-77
2023/12/06 04:37:14;;;;;;;1.75;1.65;;;;;;;;;;5050514;28;20581;-77
2023/12/06 04:39:42;;;;;;;0.10;0.10;;;;;;;;;;5031074;28;20049;-74
2023/12/06 04:42:09;;;;;;;0.95;0.95;;;;;;;;;;5047907;28;20049;-74
2023/12/06 04:44:38;;;;;;;0.10;0.10;;;;;;;;;;5050583;28;20072;-74
2023/12/06 04:47:06;;;;;;;0.68;0.68;;;;;;;;;;5050103;28;20404;-75
2023/12/06 04:49:33;;;;;;;0.10;0.10;;;;;;;;;;5049406;28;20461;-75
2023/12/06 04:52:01;;;;;;;0.63;0.63;;;;;;;;;;5049655;28;20127;-75
2023/12/06 04:54:28;;;;;;;1.25;1.15;;;;;;;;;;5031802;28;20064;-76
2023/12/06 04:56:57;;;;;;;0.38;0.38;;;;;;;;;;5049755;28;20513;-76
2023/12/06 04:59:24;;;;;;;0.70;0.70;;;;;;;;;;5050243;28;20044;-76
2023/12/06 05:01:53;;;;;;;0.30;0.30;;;;;;;;;;5031927;28;20045;-75
2023/12/06 05:04:22;;;;;;;0.20;0.20;;;;;;;;;;5045608;28;20064;-75
2023/12/06 05:06:50;;;;;;;0.20;0.20;;;;;;;;;;5049674;28;20067;-75
2023/12/06 05:09:17;;;;;;;1.98;1.80;;;;;;;;;;5049023;28;20045;-76
2023/12/06 05:11:45;;;;;;;3.00;1.05;;;;;;;;;;5037867;28;20132;-75
2023/12/06 05:14:13;;;;;;;1.25;1.20;;;;;;;;;;5029419;28;20388;-76
2023/12/06 05:16:41;;;;;;;0.70;0.70;;;;;;;;;;5042243;28;20050;-75
2023/12/06 05:19:08;;;;;;;1.15;0.80;;;;;;;;;;5048714;28;20053;-76
2023/12/06 05:21:36;;;;;;;2.88;2.75;;;;;;;;;;5048823;28;20088;-76
2023/12/06 05:24:03;;;;;;;2.20;1.52;;;;;;;;;;5046486;28;20052;-76
2023/12/06 05:26:31;;;;;;;1.08;0.82;;;;;;;;;;5049553;28;20566;-76
2023/12/06 05:28:58;;;;;;;0.85;0.85;;;;;;;;;;5049633;28;20053;-76
2023/12/06 05:31:26;;;;;;;1.70;1.60;;;;;;;;;;5049516;28;20049;-76
2023/12/06 05:33:53;;;;;;;0.85;0.85;;;;;;;;;;5049616;28;20320;-76
2023/12/06 05:36:21;;;;;;;0.20;0.20;;;;;;;;;;5050338;28;20052;-76
2023/12/06 05:38:48;;;;;;;0.52;0.52;;;;;;;;;;5050557;28;20089;-76
2023/12/06 05:41:16;;;;;;;3.75;3.50;;;;;;;;;;5049602;28;20044;-76
2023/12/06 05:43:43;;;;;;;1.85;1.60;;;;;;;;;;5039120;28;20079;-77
2023/12/06 05:46:11;;;;;;;0.57;0.57;;;;;;;;;;5050397;28;20565;-76
2023/12/06 05:48:39;;;;;;;1.52;1.45;;;;;;;;;;5049323;28;20502;-76
2023/12/06 05:51:07;;;;;;;0.52;0.52;;;;;;;;;;5049536;28;20056;-76
2023/12/06 05:53:34;;;;;;;6.47;3.47;;;;;;;;;;5049113;28;20355;-76
2023/12/06 05:56:02;;;;;;;0.57;0.57;;;;;;;;;;5049405;28;20049;-76
2023/12/06 05:58:30;;;;;;;0.60;0.60;;;;;;;;;;5067019;28;20089;-76
2023/12/06 06:00:57;;;;;;;0.63;0.63;;;;;;;;;;5063606;28;20052;-76
2023/12/06 06:03:26;;;;;;;1.75;1.65;;;;;;;;;;5048916;28;20052;-76
2023/12/06 06:05:54;;;;;;;6.03;5.60;;;;;;;;;;5049144;28;20483;-76
2023/12/06 06:08:22;;;;;;;1.88;0.80;;;;;;;;;;5015749;28;20470;-76
2023/12/06 06:10:50;;;;;;;1.00;0.90;;;;;;;;;;5029642;28;20045;-76
2023/12/06 06:13:17;;;;;;;2.33;2.20;;;;;;;;;;5031801;28;20058;-76
2023/12/06 06:15:45;;;;;;;0.88;0.88;;;;;;;;;;5054636;28;20067;-76
2023/12/06 06:18:12;;;;;;;0.98;0.98;;;;;;;;;;5047025;28;20071;-76
2023/12/06 06:20:40;;;;;;;0.10;0.10;;;;;;;;;;5055356;28;20092;-76
2023/12/06 06:23:07;;;;;;;1.75;1.70;;;;;;;;;;5030582;28;20530;-76
2023/12/06 06:25:35;;;;;;;2.10;2.00;;;;;;;;;;5049544;28;20487;-76
2023/12/06 06:28:03;;;;;;;2.35;2.25;;;;;;;;;;5033787;28;20056;-76
2023/12/06 06:30:30;;;;;;;0.55;0.55;;;;;;;;;;5047723;28;20053;-76
2023/12/06 06:32:58;;;;;;;3.78;1.30;;;;;;;;;;5059092;28;20057;-76
2023/12/06 06:35:25;;;;;;;0.80;0.80;;;;;;;;;;5046732;28;20184;-77
2023/12/06 06:37:53;;;;;;;1.77;1.63;;;;;;;;;;5051449;28;20060;-77
2023/12/06 06:40:22;;;;;;;2.28;2.00;;;;;;;;;;5050946;28;20052;-77
2023/12/06 06:42:50;;;;;;;7.57;3.33;;;;;;;;;;5051677;28;20055;-77
2023/12/06 06:45:18;;;;;;;1.52;1.45;;;;;;;;;;5039784;28;20066;-77
2023/12/06 06:47:45;;;;;;;0.55;0.50;;;;;;;;;;5052355;28;20131;-78
2023/12/06 06:50:15;;;;;;;4.55;3.30;;;;;;;;;;5053075;28;20470;-77
2023/12/06 06:52:47;;;;;;;2.20;1.95;;;;;;;;;;5054277;28;20045;-77
2023/12/06 06:55:15;;;;;;;6.43;4.35;;;;;;;;;;5062301;28;20072;-77
2023/12/06 06:57:43;;;;;;;0.50;0.50;;;;;;;;;;5037404;28;20048;-77
2023/12/06 07:00:12;;;;;;;1.00;0.93;;;;;;;;;;5058576;28;20063;-77
2023/12/06 07:02:42;;;;;;;1.02;1.02;;;;;;;;;;5048858;28;20053;-77
2023/12/06 07:05:12;;;;;;;1.55;1.45;;;;;;;;;;5033991;28;20388;-77
2023/12/06 07:07:41;;;;;;;0.47;0.47;;;;;;;;;;5051654;28;20051;-77
2023/12/06 07:10:09;;;;;;;0.15;0.15;;;;;;;;;;5041821;28;20423;-76
2023/12/06 07:12:37;;;;;;;11.77;10.88;;;;;;;;;;5046341;28;20410;-77
2023/12/06 07:15:05;;;;;;;1.00;1.00;;;;;;;;;;5047437;28;20474;-77
2023/12/06 07:17:33;;;;;;;5.72;5.38;;;;;;;;;;5054301;28;20053;-77
2023/12/06 07:20:02;;;;;;;6.70;3.00;;;;;;;;;;5055000;28;20053;-77
2023/12/06 07:22:29;;;;;;;1.50;1.40;;;;;;;;;;5048052;28;20092;-77
2023/12/06 07:24:57;;;;;;;0.88;0.88;;;;;;;;;;5053047;28;20049;-77
2023/12/06 07:27:24;;;;;;;0.98;0.82;;;;;;;;;;5055037;28;20060;-77
2023/12/06 07:29:53;;;;;;;0.73;0.73;;;;;;;;;;5052590;28;20044;-77
2023/12/06 07:32:21;;;;;;;5.05;2.97;;;;;;;;;;5044582;28;20533;-78
2023/12/06 07:34:49;;;;;;;1.98;1.70;;;;;;;;;;5051790;28;20416;-77
2023/12/06 07:37:21;;;;;;;2.97;2.78;;;;;;;;;;5053210;28;20521;-77
2023/12/06 07:39:49;;;;;;;0.93;0.93;;;;;;;;;;5053333;28;20056;-77
2023/12/06 07:42:16;;;;;;;4.50;3.47;;;;;;;;;;5051990;28;20140;-77
2023/12/06 07:44:44;;;;;;;2.08;1.95;;;;;;;;;;5051025;28;20045;-78
2023/12/06 07:47:12;;;;;;;2.15;1.55;;;;;;;;;;5053249;28;20124;-77
2023/12/06 07:49:39;;;;;;;4.78;3.72;;;;;;;;;;5055068;28;20037;-77
2023/12/06 07:52:07;;;;;;;5.43;3.60;;;;;;;;;;5050020;28;20089;-78
2023/12/06 07:54:35;;;;;;;1.52;1.02;;;;;;;;;;5045385;28;20060;-77
2023/12/06 07:57:03;;;;;;;7.22;3.85;;;;;;;;;;5051466;28;20131;-78
2023/12/06 07:59:33;;;;;;;0.65;0.65;;;;;;;;;;5028602;28;20053;-77
2023/12/06 08:02:01;;;;;;;1.75;1.70;;;;;;;;;;5051239;28;20049;-77
2023/12/06 08:04:29;;;;;;;4.32;2.33;;;;;;;;;;5052607;28;20057;-78
2023/12/06 08:06:57;;;;;;;2.20;1.00;;;;;;;;;;5025006;28;20064;-78
2023/12/06 08:09:27;;;;;;;1.40;1.30;;;;;;;;;;5047267;28;20034;-77
2023/12/06 08:11:54;;;;;;;5.20;3.40;;;;;;;;;;5055713;28;20056;-77
2023/12/06 08:14:23;;;;;;;1.55;1.45;;;;;;;;;;5048963;28;20502;-77
2023/12/06 08:16:51;;;;;;;2.42;2.20;;;;;;;;;;5050109;28;20060;-78
2023/12/06 08:19:18;;;;;;;2.53;2.28;;;;;;;;;;5043134;28;20438;-78
2023/12/06 08:21:46;;;;;;;1.13;1.10;;;;;;;;;;5041447;28;20067;-78
2023/12/06 08:24:14;;;;;;;2.53;2.33;;;;;;;;;;5053912;28;20041;-78
2023/12/06 08:26:42;;;;;;;5.88;3.58;;;;;;;;;;5039338;28;20049;-78
2023/12/06 08:29:10;;;;;;;2.63;2.33;;;;;;;;;;5055942;28;20046;-78
2023/12/06 08:31:37;;;;;;;2.72;2.08;;;;;;;;;;5049904;28;20095;-78
2023/12/06 08:34:05;;;;;;;2.35;1.58;;;;;;;;;;5052587;28;20049;-78
2023/12/06 08:36:33;;;;;;;3.10;1.60;;;;;;;;;;5048820;28;20053;-78
2023/12/06 08:39:01;;;;;;;0.75;0.75;;;;;;;;;;5052197;28;20049;-78
2023/12/06 08:41:28;;;;;;;2.03;1.92;;;;;;;;;;5049053;28;20075;-78
2023/12/06 08:43:56;;;;;;;2.22;2.10;;;;;;;;;;5055677;28;20095;-78
2023/12/06 08:46:23;;;;;;;4.68;3.10;;;;;;;;;;5048287;28;20048;-77
2023/12/06 08:48:53;;;;;;;19.48;10.50;;;;;;;;;;5029771;28;20054;-77
2023/12/06 08:51:21;;;;;;;1.15;1.10;;;;;;;;;;5049124;28;20053;-77
2023/12/06 08:53:49;;;;;;;3.88;2.95;;;;;;;;;;5035274;28;20043;-78
2023/12/06 08:56:16;;;;;;;0.85;0.65;;;;;;;;;;5043077;28;20104;-78
2023/12/06 08:58:44;;;;;;;0.85;0.85;;;;;;;;;;5031134;28;20473;-78
2023/12/06 09:01:11;;;;;;;1.73;1.42;;;;;;;;;;5045369;28;20055;-77
2023/12/06 09:03:39;;;;;;;1.85;0.82;;;;;;;;;;5025893;28;20491;-78
2023/12/06 09:06:08;;;;;;;0.35;0.35;;;;;;;;;;5017933;28;20159;-77
2023/12/06 09:08:35;;;;;;;0.88;0.75;;;;;;;;;;5045637;28;21049;-78
2023/12/06 09:11:03;;;;;;;4.20;3.70;;;;;;;;;;5031952;28;20098;-75
2023/12/06 09:13:31;;;;;;;6.40;3.28;;;;;;;;;;5026332;28;20080;-74
2023/12/06 09:15:58;;;;;;;0.95;0.95;;;;;;;;;;5045663;28;20156;-74
2023/12/06 09:18:27;;;;;;;1.80;1.70;;;;;;;;;;5042646;28;20119;-76
2023/12/06 09:20:55;;;;;;;5.78;3.92;;;;;;;;;;5040152;28;20085;-76
2023/12/06 09:23:22;;;;;;;2.17;2.08;;;;;;;;;;5028843;28;20562;-77
2023/12/06 09:25:50;;;;;;;3.22;1.67;;;;;;;;;;5037458;28;20053;-77
2023/12/06 09:28:17;;;;;;;7.70;5.50;;;;;;;;;;5036133;28;20521;-76
2023/12/06 09:30:45;;;;;;;1.33;1.10;;;;;;;;;;5029290;28;20410;-76
2023/12/06 09:33:12;;;;;;;1.52;1.25;;;;;;;;;;5036282;28;20483;-77
2023/12/06 09:35:41;;;;;;;2.67;2.53;;;;;;;;;;5036768;28;20057;-76
2023/12/06 09:38:08;;;;;;;4.22;2.80;;;;;;;;;;5035271;28;20427;-77
2023/12/06 09:40:36;;;;;;;3.33;2.88;;;;;;;;;;5041711;28;20041;-77
2023/12/06 09:43:03;;;;;;;0.20;0.20;;;;;;;;;;5039212;28;20063;-77
2023/12/06 09:45:31;;;;;;;3.03;2.85;;;;;;;;;;5040367;28;20049;-76
2023/12/06 09:47:59;;;;;;;2.17;2.05;;;;;;;;;;5043351;28;20074;-79
2023/12/06 09:50:27;;;;;;;5.13;4.28;;;;;;;;;;5040980;28;20045;-77
2023/12/06 09:52:55;;;;;;;0.55;0.55;;;;;;;;;;5046313;28;20049;-77
2023/12/06 09:55:23;;;;;;;1.98;1.77;;;;;;;;;;5038563;28;20052;-77
2023/12/06 09:57:52;;;;;;;12.48;3.55;;;;;;;;;;5031088;28;20099;-76
2023/12/06 10:00:20;;;;;;;2.20;2.00;;;;;;;;;;5036615;28;20061;-77
2023/12/06 10:02:55;;;;;;;7.78;7.00;;;;;;;;;;5019830;28;20049;-77
2023/12/06 10:05:26;;;;;;;2.80;1.98;;;;;;;;;;5034887;28;20440;-77
2023/12/06 10:07:53;;;;;;;4.72;3.33;;;;;;;;;;5040146;28;20055;-77
2023/12/06 10:10:22;;;;;;;10.93;2.40;;;;;;;;;;5047116;28;20045;-76
2023/12/06 10:12:52;;;;;;;3.47;3.17;;;;;;;;;;5042273;28;20030;-77
2023/12/06 10:15:20;;;;;;;2.78;1.92;;;;;;;;;;5035642;28;20107;-77
2023/12/06 10:17:49;;;;;;;4.47;3.13;;;;;;;;;;5042536;28;20045;-77
2023/12/06 10:20:22;;;;;;;6.88;6.07;;;;;;;;;;5046138;28;20041;-77
2023/12/06 10:22:50;;;;;;;1.10;1.08;;;;;;;;;;5045396;28;20115;-78
2023/12/06 10:25:17;;;;;;;3.50;3.15;;;;;;;;;;5047192;28;20457;-74
2023/12/06 10:27:45;;;;;;;1.17;1.08;;;;;;;;;;5027829;28;20563;-77
2023/12/06 10:30:20;;;;;;;1.75;1.42;;;;;;;;;;5045735;28;20044;-77
2023/12/06 10:32:49;;;;;;;1.88;1.77;;;;;;;;;;5029109;28;20375;-77
2023/12/06 10:35:17;;;;;;;4.57;3.85;;;;;;;;;;5034875;28;20132;-76
2023/12/06 10:37:46;;;;;;;1.77;1.67;;;;;;;;;;5034542;28;20068;-76
2023/12/06 10:40:14;;;;;;;1.45;1.35;;;;;;;;;;5039124;28;20060;-76
2023/12/06 10:42:45;;;;;;;5.05;3.67;;;;;;;;;;5032885;28;20374;-76
2023/12/06 10:45:13;;;;;;;1.63;1.52;;;;;;;;;;5035999;28;20403;-76
2023/12/06 10:47:42;;;;;;;4.85;3.13;;;;;;;;;;5027070;28;20048;-75
2023/12/06 10:50:11;;;;;;;1.65;1.55;;;;;;;;;;5034604;28;20540;-77
2023/12/06 10:52:40;;;;;;;3.30;2.97;;;;;;;;;;5031394;28;20048;-74
2023/12/06 10:55:07;;;;;;;4.50;2.58;;;;;;;;;;5031149;28;20041;-76
2023/12/06 10:57:37;;;;;;;3.75;1.92;;;;;;;;;;5027739;28;20072;-77
2023/12/06 11:00:11;;;;;;;0.85;0.85;;;;;;;;;;5017825;28;20052;-77
2023/12/06 11:02:39;;;;;;;1.85;1.75;;;;;;;;;;5027423;28;20447;-77
2023/12/06 11:05:11;;;;;;;6.47;4.63;;;;;;;;;;5031648;28;20148;-76
2023/12/06 11:07:39;;;;;;;1.77;1.63;;;;;;;;;;5019458;28;20049;-77
2023/12/06 11:10:09;;;;;;;1.10;1.00;;;;;;;;;;5027428;28;20037;-76
2023/12/06 11:13:00;;;;;;;4.53;4.13;;;;;;;;;;5016849;28;20073;-75
2023/12/06 11:15:38;;;;;;;0.47;0.47;;;;;;;;;;5020811;28;20064;-76
2023/12/06 11:18:13;;;;;;;3.22;2.15;;;;;;;;;;5018910;28;20054;-76
2023/12/06 11:20:41;;;;;;;4.47;4.07;;;;;;;;;;5024691;28;20153;-77
2023/12/06 11:23:10;;;;;;;1.08;1.08;;;;;;;;;;5029412;28;20075;-76
2023/12/06 11:25:44;;;;;;;4.68;3.22;;;;;;;;;;5025323;28;20464;-77
2023/12/06 11:28:12;;;;;;;2.10;2.00;;;;;;;;;;5027940;28;20045;-77
2023/12/06 11:30:50;;;;;;;0.80;0.80;;;;;;;;;;5011280;28;20072;-75
2023/12/06 11:33:18;;;;;;;8.70;6.05;;;;;;;;;;5020261;28;20041;-74
2023/12/06 11:35:55;;;;;;;1.42;1.33;;;;;;;;;;5018627;28;20295;-75
2023/12/06 11:38:33;;;;;;;4.25;1.48;;;;;;;;;;5025377;28;20122;-78
2023/12/06 11:41:00;;;;;;;1.75;1.17;;;;;;;;;;5025088;28;20037;-75
2023/12/06 11:43:32;;;;;;;1.45;1.35;;;;;;;;;;5028983;28;20487;-78
2023/12/06 11:46:03;;;;;;;5.90;5.45;;;;;;;;;;5034545;28;20129;-77
2023/12/06 11:48:33;;;;;;;0.20;0.20;;;;;;;;;;5038157;28;20502;-76
2023/12/06 11:51:01;;;;;;;1.83;1.73;;;;;;;;;;5022398;28;20045;-77
2023/12/06 11:53:29;;;;;;;2.05;1.95;;;;;;;;;;5039418;28;20049;-75
2023/12/06 11:55:57;;;;;;;0.30;0.30;;;;;;;;;;5043036;28;21410;-77
2023/12/06 11:58:31;;;;;;;0.60;0.60;;;;;;;;;;5052102;28;20052;-78
2023/12/06 12:01:01;;;;;;;3.25;2.40;;;;;;;;;;5048722;28;20064;-76
2023/12/06 12:03:32;;;;;;;2.58;2.03;;;;;;;;;;5032660;28;20095;-76
2023/12/06 12:05:59;;;;;;;0.32;0.32;;;;;;;;;;5039907;28;20056;-75
2023/12/06 12:08:30;;;;;;;1.23;1.13;;;;;;;;;;5029542;28;20136;-77
2023/12/06 12:10:58;;;;;;;1.17;1.17;;;;;;;;;;5007619;28;20049;-76
2023/12/06 12:13:26;;;;;;;0.65;0.65;;;;;;;;;;5014139;28;20051;-75
2023/12/06 12:15:58;;;;;;;7.72;4.68;;;;;;;;;;5028195;28;20143;-74
2023/12/06 12:18:30;;;;;;;11.50;7.85;;;;;;;;;;5035276;28;20124;-75
2023/12/06 12:21:06;;;;;;;1.27;0.65;;;;;;;;;;5034113;28;20128;-80
2023/12/06 12:23:34;;;;;;;0.85;0.80;;;;;;;;;;5012917;28;20562;-76
2023/12/06 12:26:01;;;;;;;3.63;3.33;;;;;;;;;;5025697;28;20399;-78
2023/12/06 12:28:29;;;;;;;0.80;0.75;;;;;;;;;;5022668;28;20054;-78
2023/12/06 12:31:04;;;;;;;1.92;1.75;;;;;;;;;;5029631;28;20076;-78
2023/12/06 12:33:33;;;;;;;3.45;2.83;;;;;;;;;;4993664;28;20057;-77
2023/12/06 12:36:02;;;;;;;14.82;3.65;;;;;;;;;;5031143;28;20048;-76
2023/12/06 12:38:30;;;;;;;10.43;5.68;;;;;;;;;;5020840;28;20577;-75
2023/12/06 12:40:58;;;;;;;2.45;2.35;;;;;;;;;;5021264;28;20062;-77
2023/12/06 12:43:25;;;;;;;0.85;0.85;;;;;;;;;;5023119;28;20107;-77
2023/12/06 12:45:53;;;;;;;1.15;1.10;;;;;;;;;;5028416;28;20049;-77
2023/12/06 12:48:22;;;;;;;4.75;4.05;;;;;;;;;;5022598;28;20057;-75
2023/12/06 12:50:49;;;;;;;3.72;2.50;;;;;;;;;;5026968;28;20430;-77
2023/12/06 12:53:17;;;;;;;0.82;0.82;;;;;;;;;;5030635;28;20734;-80
2023/12/06 12:55:48;;;;;;;2.83;1.40;;;;;;;;;;5027461;28;20042;-78
2023/12/06 12:58:16;;;;;;;2.85;2.33;;;;;;;;;;5018444;28;20052;-75
2023/12/06 13:00:43;;;;;;;2.30;2.10;;;;;;;;;;5026594;28;20060;-74
2023/12/06 13:03:11;;;;;;;12.30;7.20;;;;;;;;;;5010920;28;20065;-74
2023/12/06 13:05:42;;;;;;;0.17;0.17;;;;;;;;;;5027031;28;20083;-74
2023/12/06 13:08:12;;;;;;;1.20;1.20;;;;;;;;;;5032179;28;20495;-75
2023/12/06 13:10:40;;;;;;;1.25;1.20;;;;;;;;;;5029957;28;20296;-75
2023/12/06 13:13:08;;;;;;;0.20;0.20;;;;;;;;;;5017216;28;20046;-75
2023/12/06 13:15:36;;;;;;;11.48;2.63;;;;;;;;;;5027901;28;20042;-74
2023/12/06 13:18:03;;;;;;;4.35;2.83;;;;;;;;;;5030792;28;20541;-73
2023/12/06 13:20:31;;;;;;;1.20;0.80;;;;;;;;;;5030360;28;20048;-76
2023/12/06 13:22:58;;;;;;;1.05;1.00;;;;;;;;;;5028997;28;20502;-74
2023/12/06 13:25:26;;;;;;;0.47;0.28;;;;;;;;;;5035398;28;20054;-76
2023/12/06 13:27:53;;;;;;;0.77;0.77;;;;;;;;;;5029703;28;20187;-74
2023/12/06 13:30:21;;;;;;;4.78;4.45;;;;;;;;;;5029041;28;20128;-74
2023/12/06 13:32:48;;;;;;;6.07;3.40;;;;;;;;;;5010322;28;20041;-73
2023/12/06 13:35:19;;;;;;;1.55;1.45;;;;;;;;;;5034561;28;20128;-74
2023/12/06 13:37:57;;;;;;;5.25;4.75;;;;;;;;;;5028058;28;20050;-75
2023/12/06 13:40:26;;;;;;;8.55;7.40;;;;;;;;;;5033295;28;20072;-74
2023/12/06 13:42:53;;;;;;;3.90;3.60;;;;;;;;;;5013807;28;20052;-74
2023/12/06 13:45:21;;;;;;;3.45;3.17;;;;;;;;;;5017509;28;20639;-75
2023/12/06 13:47:49;;;;;;;0.32;0.32;;;;;;;;;;5034246;28;20049;-75
2023/12/06 13:50:16;;;;;;;3.85;2.83;;;;;;;;;;5032430;28;20132;-74
2023/12/06 13:52:43;;;;;;;4.45;4.22;;;;;;;;;;5034480;28;20132;-73
2023/12/06 13:55:11;;;;;;;4.00;3.20;;;;;;;;;;5030890;28;20049;-75
2023/12/06 13:57:40;;;;;;;0.15;0.15;;;;;;;;;;5029227;28;20041;-73
2023/12/06 14:00:08;;;;;;;2.78;2.65;;;;;;;;;;5034485;28;20044;-75
2023/12/06 14:02:39;;;;;;;;;;;;;;;;;;5033062;28;20041;-73
2023/12/06 14:05:07;;;;;;;1.33;1.33;;;;;;;;;;5031952;28;19932;-74
2023/12/06 14:07:37;;;;;;;1.30;1.30;;;;;;;;;;5030987;28;20150;-73
2023/12/06 14:10:06;;;;;;;1.40;1.30;;;;;;;;;;5027581;28;20045;-74
2023/12/06 14:12:35;;;;;;;1.92;1.85;;;;;;;;;;5027139;28;20325;-75
2023/12/06 14:15:02;;;;;;;0.20;0.20;;;;;;;;;;5031404;28;20939;-73
2023/12/06 14:17:30;;;;;;;1.00;0.75;;;;;;;;;;5035672;28;20068;-75
2023/12/06 14:19:58;;;;;;;1.35;1.25;;;;;;;;;;5032712;28;20057;-75
2023/12/06 14:22:26;;;;;;;1.65;1.60;;;;;;;;;;5031864;28;20053;-75
2023/12/06 14:24:55;;;;;;;2.40;2.28;;;;;;;;;;5030110;28;20071;-75
2023/12/06 14:27:22;;;;;;;7.22;5.03;;;;;;;;;;5033632;28;20063;-74
2023/12/06 14:29:51;;;;;;;2.33;2.22;;;;;;;;;;5028108;28;20044;-74
2023/12/06 14:32:34;;;;;;;3.72;2.55;;;;;;;;;;5025003;28;20045;-74
2023/12/06 14:35:01;;;;;;;5.13;4.72;;;;;;;;;;5026792;28;20047;-74
2023/12/06 14:37:29;;;;;;;6.22;3.45;;;;;;;;;;5019083;28;20077;-73
2023/12/06 14:39:56;;;;;;;2.45;2.00;;;;;;;;;;5028679;28;20056;-73
2023/12/06 14:42:24;;;;;;;8.02;7.30;;;;;;;;;;5039540;28;20045;-72
2023/12/06 14:44:54;;;;;;;4.75;4.35;;;;;;;;;;5024669;28;20068;-73
2023/12/06 14:47:21;;;;;;;1.50;1.40;;;;;;;;;;5032250;28;20049;-73
2023/12/06 14:49:50;;;;;;;2.05;1.95;;;;;;;;;;5025312;28;20419;-73